createdAt,value
2019-02-20T00:01:03.773Z,5.10
2019-02-20T00:03:33.991Z,5.10
2019-02-20T00:06:04.112Z,5.10
2019-02-20T00:08:34.183Z,5.20
2019-02-20T00:11:04.282Z,5.10
2019-02-20T00:13:34.468Z,5.10
2019-02-20T00:16:04.494Z,5.00
2019-02-20T00:18:34.681Z,5.00
2019-02-20T00:21:04.693Z,4.90
2019-02-20T00:23:34.849Z,4.90
2019-02-20T00:26:05.026Z,4.80
2019-02-20T00:28:35.335Z,4.80
2019-02-20T00:31:05.539Z,4.70
2019-02-20T00:33:35.613Z,4.70
2019-02-20T00:36:07.407Z,4.70
2019-02-20T00:38:37.502Z,4.60
2019-02-20T00:41:07.625Z,4.70
2019-02-20T00:43:41.437Z,4.70
2019-02-20T00:46:23.455Z,4.70
2019-02-20T00:49:08.056Z,4.80
2019-02-20T00:52:00.165Z,4.80
2019-02-20T00:54:30.693Z,4.90
2019-02-20T00:57:00.768Z,4.90
2019-02-20T00:59:31.128Z,4.90
2019-02-20T01:02:01.290Z,4.90
2019-02-20T01:04:31.472Z,4.90
2019-02-20T01:07:01.572Z,4.90
2019-02-20T01:09:33.828Z,4.90
2019-02-20T01:12:07.217Z,4.90
2019-02-20T01:14:37.288Z,4.80
2019-02-20T01:17:07.373Z,4.90
2019-02-20T01:19:37.489Z,4.80
2019-02-20T01:22:07.638Z,4.80
2019-02-20T01:24:49.559Z,4.80
2019-02-20T01:27:24.486Z,4.80
2019-02-20T01:29:57.980Z,4.70
2019-02-20T01:32:28.211Z,4.70
2019-02-20T01:34:58.238Z,4.80
2019-02-20T01:37:28.377Z,4.70
2019-02-20T01:40:00.773Z,4.80
2019-02-20T01:42:30.803Z,4.80
2019-02-20T01:45:00.973Z,4.80
2019-02-20T01:47:31.036Z,4.70
2019-02-20T01:50:01.093Z,4.70
2019-02-20T01:52:31.607Z,4.70
2019-02-20T01:55:01.724Z,4.80
2019-02-20T01:57:31.980Z,4.80
2019-02-20T02:00:02.089Z,4.80
2019-02-20T02:02:32.276Z,4.80
2019-02-20T02:05:02.703Z,4.90
2019-02-20T02:07:32.811Z,4.90
2019-02-20T02:10:02.960Z,4.90
2019-02-20T02:12:33.326Z,4.90
2019-02-20T02:15:03.444Z,5.00
2019-02-20T02:17:33.509Z,5.00
2019-02-20T02:20:03.637Z,5.10
2019-02-20T02:22:33.860Z,5.10
2019-02-20T02:25:03.952Z,5.20
2019-02-20T02:27:33.986Z,5.20
2019-02-20T02:30:04.608Z,5.30
2019-02-20T02:32:34.770Z,5.30
2019-02-20T02:35:05.066Z,5.20
2019-02-20T02:37:35.118Z,5.10
2019-02-20T02:40:05.710Z,5.00
2019-02-20T02:42:35.842Z,4.90
2019-02-20T02:45:06.065Z,4.80
2019-02-20T02:47:36.149Z,4.70
2019-02-20T02:50:06.400Z,4.60
2019-02-20T02:52:36.408Z,4.50
2019-02-20T02:55:06.531Z,4.50
2019-02-20T02:57:36.655Z,4.40
2019-02-20T03:00:07.296Z,4.40
2019-02-20T03:02:37.460Z,4.40
2019-02-20T03:05:07.775Z,4.30
2019-02-20T03:07:37.797Z,4.30
2019-02-20T03:10:07.840Z,4.30
2019-02-20T03:12:49.257Z,4.30
2019-02-20T03:15:19.408Z,4.30
2019-02-20T03:17:49.420Z,4.30
2019-02-20T03:20:19.525Z,4.30
2019-02-20T03:22:49.590Z,4.40
2019-02-20T03:25:19.656Z,4.40
2019-02-20T03:27:50.908Z,4.40
2019-02-20T03:30:21.057Z,4.40
2019-02-20T03:32:52.204Z,4.40
2019-02-20T03:35:22.381Z,4.40
2019-02-20T03:37:53.307Z,4.40
2019-02-20T03:40:23.399Z,4.30
2019-02-20T03:42:53.622Z,4.30
2019-02-20T03:45:23.679Z,4.20
2019-02-20T03:47:53.737Z,4.20
2019-02-20T03:50:23.877Z,4.20
2019-02-20T03:52:53.911Z,4.10
2019-02-20T03:55:24.109Z,4.10
2019-02-20T03:57:54.128Z,4.10
2019-02-20T04:00:24.327Z,4.10
2019-02-20T04:02:54.489Z,4.10
2019-02-20T04:05:24.513Z,4.10
2019-02-20T04:07:54.497Z,4.10
2019-02-20T04:10:24.535Z,4.10
2019-02-20T04:12:54.555Z,4.10
2019-02-20T04:15:24.669Z,4.10
2019-02-20T04:17:56.361Z,4.20
2019-02-20T04:20:26.409Z,4.30
2019-02-20T04:22:56.414Z,4.30
2019-02-20T04:25:26.474Z,4.30
2019-02-20T04:27:56.530Z,4.40
2019-02-20T04:30:26.579Z,4.40
2019-02-20T04:32:58.617Z,4.40
2019-02-20T04:35:29.048Z,4.30
2019-02-20T04:38:01.963Z,4.30
2019-02-20T04:40:32.086Z,4.30
2019-02-20T04:43:02.090Z,4.20
2019-02-20T04:45:32.120Z,4.20
2019-02-20T04:48:02.148Z,4.20
2019-02-20T04:50:32.227Z,4.20
2019-02-20T04:53:03.409Z,4.10
2019-02-20T04:55:33.624Z,4.10
2019-02-20T04:58:22.766Z,4.10
2019-02-20T05:00:52.893Z,4.10
2019-02-20T05:03:23.315Z,4.00
2019-02-20T05:05:53.506Z,4.10
2019-02-20T05:08:23.617Z,4.10
2019-02-20T05:10:54.792Z,4.10
2019-02-20T05:13:24.815Z,4.10
2019-02-20T05:15:54.855Z,4.10
2019-02-20T05:18:24.967Z,4.00
2019-02-20T05:20:56.387Z,4.00
2019-02-20T05:23:26.473Z,4.00
2019-02-20T05:25:56.508Z,4.00
2019-02-20T05:28:26.590Z,3.90
2019-02-20T05:30:56.614Z,3.90
2019-02-20T05:33:26.697Z,3.80
2019-02-20T05:35:56.735Z,3.80
2019-02-20T05:38:26.733Z,3.80
2019-02-20T05:40:56.751Z,3.80
2019-02-20T05:43:26.818Z,3.80
2019-02-20T05:45:56.879Z,3.80
2019-02-20T05:48:27.005Z,3.80
2019-02-20T05:50:57.137Z,3.90
2019-02-20T05:53:27.182Z,3.90
2019-02-20T05:55:58.060Z,3.80
2019-02-20T05:58:28.228Z,3.80
2019-02-20T06:00:58.278Z,3.80
2019-02-20T06:03:28.951Z,3.70
2019-02-20T06:05:58.998Z,3.70
2019-02-20T06:08:29.121Z,3.70
2019-02-20T06:10:59.158Z,3.70
2019-02-20T06:13:29.277Z,3.70
2019-02-20T06:15:59.376Z,3.80
2019-02-20T06:18:29.405Z,3.80
2019-02-20T06:20:59.809Z,3.90
2019-02-20T06:23:30.109Z,4.00
2019-02-20T06:26:00.244Z,4.00
2019-02-20T06:28:30.425Z,4.20
2019-02-20T06:31:00.456Z,4.30
2019-02-20T06:33:30.578Z,4.30
2019-02-20T06:36:00.606Z,4.40
2019-02-20T06:38:30.730Z,4.50
2019-02-20T06:41:00.761Z,4.40
2019-02-20T06:43:30.786Z,4.40
2019-02-20T06:46:00.880Z,4.40
2019-02-20T06:48:31.043Z,4.50
2019-02-20T06:51:01.057Z,4.50
2019-02-20T06:53:31.079Z,4.60
2019-02-20T06:56:02.256Z,4.60
2019-02-20T06:58:32.292Z,4.60
2019-02-20T07:01:02.412Z,4.60
2019-02-20T07:03:32.491Z,4.60
2019-02-20T07:06:36.373Z,4.60
2019-02-20T07:09:42.194Z,4.80
2019-02-20T07:12:56.318Z,5.20
2019-02-20T07:16:08.193Z,5.20
2019-02-20T07:19:16.532Z,5.30
2019-02-20T07:22:29.750Z,5.30
2019-02-20T07:25:36.326Z,5.30
2019-02-20T07:29:02.608Z,5.40
2019-02-20T07:31:32.702Z,5.40
2019-02-20T07:34:05.255Z,5.50
2019-02-20T07:36:34.581Z,5.50
2019-02-20T07:39:07.088Z,5.70
2019-02-20T07:41:37.130Z,5.80
2019-02-20T07:44:07.135Z,5.90
2019-02-20T07:46:37.197Z,6.00
2019-02-20T07:49:07.213Z,6.10
2019-02-20T07:51:37.386Z,6.20
2019-02-20T07:54:07.451Z,6.30
2019-02-20T07:56:37.659Z,6.30
2019-02-20T07:59:07.805Z,6.30
2019-02-20T08:01:37.868Z,6.30
2019-02-20T08:04:07.976Z,6.40
2019-02-20T08:06:38.059Z,6.30
2019-02-20T08:09:08.252Z,6.40
2019-02-20T08:11:38.311Z,6.40
2019-02-20T08:14:08.320Z,6.50
2019-02-20T08:16:38.370Z,6.50
2019-02-20T08:19:08.454Z,6.50
2019-02-20T08:21:38.736Z,6.50
2019-02-20T08:24:08.842Z,6.60
2019-02-20T08:26:39.127Z,6.70
2019-02-20T08:29:09.312Z,6.70
2019-02-20T08:31:39.487Z,6.80
2019-02-20T08:34:09.645Z,6.90
2019-02-20T08:36:39.814Z,6.90
2019-02-20T08:39:10.157Z,7.00
2019-02-20T08:41:40.367Z,7.00
2019-02-20T08:44:10.447Z,7.10
2019-02-20T08:46:40.592Z,7.10
2019-02-20T08:49:10.786Z,7.20
2019-02-20T08:51:41.175Z,7.30
2019-02-20T08:54:12.373Z,7.30
2019-02-20T08:56:42.495Z,7.30
2019-02-20T08:59:12.617Z,7.30
2019-02-20T09:01:42.773Z,7.30
2019-02-20T09:04:12.839Z,7.40
2019-02-20T09:06:42.858Z,7.50
2019-02-20T09:09:13.368Z,7.60
2019-02-20T09:11:45.534Z,7.80
2019-02-20T09:14:15.475Z,8.10
2019-02-20T09:16:45.517Z,8.20
2019-02-20T09:19:15.517Z,8.30
2019-02-20T09:21:45.542Z,8.60
2019-02-20T09:24:19.462Z,8.70
2019-02-20T09:26:49.708Z,8.80
2019-02-20T09:29:19.826Z,8.90
2019-02-20T09:31:50.159Z,8.90
2019-02-20T09:34:20.242Z,8.90
2019-02-20T09:36:50.461Z,9.10
2019-02-20T09:39:37.597Z,9.20
2019-02-20T09:42:09.946Z,9.40
2019-02-20T09:44:50.978Z,9.50
2019-02-20T09:47:21.293Z,9.60
2019-02-20T09:49:51.357Z,9.60
2019-02-20T09:52:21.425Z,9.70
2019-02-20T09:54:51.495Z,9.90
2019-02-20T09:57:21.751Z,10.00
2019-02-20T09:59:51.797Z,10.10
2019-02-20T10:02:21.863Z,10.20
2019-02-20T10:04:51.925Z,10.30
2019-02-20T10:07:22.132Z,10.50
2019-02-20T10:09:52.245Z,10.60
2019-02-20T10:12:22.298Z,10.80
2019-02-20T10:14:52.323Z,10.80
2019-02-20T10:17:22.403Z,11.00
2019-02-20T10:19:52.438Z,11.10
2019-02-20T10:22:22.525Z,11.00
2019-02-20T10:24:52.615Z,10.90
2019-02-20T10:27:22.763Z,10.90
2019-02-20T10:29:53.001Z,10.80
2019-02-20T10:32:23.123Z,10.70
2019-02-20T10:34:53.367Z,10.60
2019-02-20T10:37:23.472Z,10.60
2019-02-20T10:39:53.631Z,10.60
2019-02-20T10:42:23.915Z,10.60
2019-02-20T10:44:53.970Z,10.60
2019-02-20T10:47:23.993Z,10.60
2019-02-20T10:49:54.031Z,10.50
2019-02-20T10:52:24.203Z,10.50
2019-02-20T10:54:57.821Z,10.40
2019-02-20T10:57:28.548Z,10.50
2019-02-20T10:59:58.571Z,10.50
2019-02-20T11:02:28.616Z,10.60
2019-02-20T11:05:00.744Z,10.70
2019-02-20T11:07:30.910Z,10.80
2019-02-20T11:10:00.946Z,10.90
2019-02-20T11:12:31.017Z,11.10
2019-02-20T11:15:01.018Z,11.20
2019-02-20T11:17:31.066Z,11.30
2019-02-20T11:20:01.088Z,11.30
2019-02-20T11:22:32.133Z,11.40
2019-02-20T11:25:02.379Z,11.50
2019-02-20T11:27:32.744Z,11.50
2019-02-20T11:30:03.140Z,11.40
2019-02-20T11:32:34.461Z,11.40
2019-02-20T11:35:05.233Z,11.50
2019-02-20T11:37:35.388Z,11.50
2019-02-20T11:40:06.426Z,11.40
2019-02-20T11:42:39.373Z,11.30
2019-02-20T11:45:09.785Z,11.30
2019-02-20T11:47:41.514Z,11.20
2019-02-20T11:50:11.824Z,11.20
2019-02-20T11:52:42.595Z,11.10
2019-02-20T11:55:12.744Z,11.10
2019-02-20T11:57:42.788Z,11.10
2019-02-20T12:00:13.755Z,11.20
2019-02-20T12:02:43.958Z,11.30
2019-02-20T12:05:14.265Z,11.30
2019-02-20T12:07:44.436Z,11.30
2019-02-20T12:10:15.287Z,11.40
2019-02-20T12:12:45.371Z,11.50
2019-02-20T12:15:15.543Z,11.60
2019-02-20T12:17:45.619Z,11.70
2019-02-20T12:20:15.649Z,11.80
2019-02-20T12:22:45.792Z,11.90
2019-02-20T12:25:15.994Z,11.90
2019-02-20T12:27:46.081Z,11.90
2019-02-20T12:30:16.130Z,11.90
2019-02-20T12:32:46.320Z,11.90
2019-02-20T12:35:16.542Z,11.90
2019-02-20T12:37:46.717Z,11.90
2019-02-20T12:40:16.896Z,12.00
2019-02-20T12:42:46.951Z,12.00
2019-02-20T12:45:19.523Z,12.10
2019-02-20T12:47:49.643Z,12.00
2019-02-20T12:50:19.755Z,11.90
2019-02-20T12:52:49.934Z,11.80
2019-02-20T12:55:20.028Z,11.70
2019-02-20T12:57:50.475Z,11.60
2019-02-20T13:00:22.186Z,11.60
2019-02-20T13:02:52.305Z,11.60
2019-02-20T13:05:22.560Z,11.70
2019-02-20T13:07:52.622Z,11.80
2019-02-20T13:10:22.777Z,11.90
2019-02-20T13:12:52.951Z,12.00
2019-02-20T13:15:23.053Z,12.10
2019-02-20T13:17:53.088Z,12.10
2019-02-20T13:20:23.142Z,12.10
2019-02-20T13:22:58.763Z,12.10
2019-02-20T13:25:28.869Z,12.10
2019-02-20T13:27:58.961Z,12.20
2019-02-20T13:30:29.029Z,12.20
2019-02-20T13:32:59.089Z,12.30
2019-02-20T13:35:29.220Z,12.30
2019-02-20T13:37:59.358Z,12.30
2019-02-20T13:40:29.474Z,12.30
2019-02-20T13:42:59.695Z,12.30
2019-02-20T13:45:29.879Z,12.30
2019-02-20T13:48:00.336Z,12.30
2019-02-20T13:50:30.428Z,12.40
2019-02-20T13:53:00.567Z,12.40
2019-02-20T13:55:34.596Z,12.40
2019-02-20T13:58:02.436Z,12.40
2019-02-20T14:00:32.597Z,12.40
2019-02-20T14:03:03.413Z,12.40
2019-02-20T14:05:33.651Z,12.50
2019-02-20T14:08:03.810Z,12.50
2019-02-20T14:10:33.913Z,12.40
2019-02-20T14:13:04.059Z,12.50
2019-02-20T14:15:34.214Z,12.50
2019-02-20T14:18:04.794Z,12.60
2019-02-20T14:20:34.965Z,12.50
2019-02-20T14:23:06.706Z,12.50
2019-02-20T14:25:37.059Z,12.50
2019-02-20T14:28:08.252Z,12.40
2019-02-20T14:30:38.363Z,12.40
2019-02-20T14:33:08.554Z,12.50
2019-02-20T14:35:38.736Z,12.50
2019-02-20T14:38:08.941Z,12.50
2019-02-20T14:40:39.102Z,12.50
2019-02-20T14:43:11.996Z,12.50
2019-02-20T14:45:42.479Z,12.50
2019-02-20T14:48:12.631Z,12.50
2019-02-20T14:50:42.826Z,12.60
2019-02-20T14:53:13.150Z,12.60
2019-02-20T14:55:44.670Z,12.60
2019-02-20T14:58:14.866Z,12.60
2019-02-20T15:00:45.348Z,12.50
2019-02-20T15:03:15.496Z,12.50
2019-02-20T15:05:45.586Z,12.50
2019-02-20T15:08:15.688Z,12.50
2019-02-20T15:10:45.853Z,12.40
2019-02-20T15:13:15.958Z,12.40
2019-02-20T15:15:47.414Z,12.40
2019-02-20T15:18:17.630Z,12.40
2019-02-20T15:20:48.847Z,12.40
2019-02-20T15:23:19.117Z,12.40
2019-02-20T15:25:49.223Z,12.30
2019-02-20T15:28:19.871Z,12.30
2019-02-20T15:30:50.094Z,12.20
2019-02-20T15:33:20.235Z,12.10
2019-02-20T15:35:50.474Z,12.10
2019-02-20T15:38:20.985Z,12.00
2019-02-20T15:40:51.087Z,12.00
2019-02-20T15:43:21.658Z,12.00
2019-02-20T15:45:51.739Z,11.90
2019-02-20T15:48:23.505Z,11.90
2019-02-20T15:50:53.659Z,11.80
2019-02-20T15:53:23.811Z,11.80
2019-02-20T15:55:53.907Z,11.70
2019-02-20T15:58:24.221Z,11.70
2019-02-20T16:00:54.417Z,11.60
2019-02-20T16:03:24.553Z,11.50
2019-02-20T16:05:54.683Z,11.50
2019-02-20T16:08:24.803Z,11.40
2019-02-20T16:10:55.304Z,11.30
2019-02-20T16:13:25.472Z,11.20
2019-02-20T16:15:55.636Z,11.10
2019-02-20T16:18:25.795Z,11.10
2019-02-20T16:20:55.860Z,11.00
2019-02-20T16:23:26.054Z,11.00
2019-02-20T16:25:56.258Z,10.90
2019-02-20T16:28:33.588Z,10.90
2019-02-20T16:30:58.112Z,10.80
2019-02-20T16:33:28.281Z,10.70
2019-02-20T16:35:58.405Z,10.70
2019-02-20T16:38:28.628Z,10.60
2019-02-20T16:40:58.993Z,10.50
2019-02-20T16:43:29.108Z,10.50
2019-02-20T16:45:59.121Z,10.40
2019-02-20T16:48:29.314Z,10.40
2019-02-20T16:50:59.323Z,10.30
2019-02-20T16:53:29.517Z,10.20
2019-02-20T16:56:00.026Z,10.10
2019-02-20T16:58:30.170Z,10.10
2019-02-20T17:01:00.261Z,10.00
2019-02-20T17:03:30.347Z,9.90
2019-02-20T17:06:00.499Z,9.80
2019-02-20T17:08:30.736Z,9.70
2019-02-20T17:11:00.872Z,9.60
2019-02-20T17:13:31.178Z,9.50
2019-02-20T17:16:01.265Z,9.50
2019-02-20T17:18:31.479Z,9.40
2019-02-20T17:21:01.576Z,9.30
2019-02-20T17:23:32.033Z,9.20
2019-02-20T17:26:02.137Z,9.10
2019-02-20T17:28:32.275Z,9.00
2019-02-20T17:31:02.426Z,8.90
2019-02-20T17:33:32.649Z,8.90
2019-02-20T17:36:04.449Z,8.90
2019-02-20T17:38:34.993Z,8.80
2019-02-20T17:41:05.273Z,8.70
2019-02-20T17:43:43.323Z,8.70
2019-02-20T17:46:15.105Z,8.60
2019-02-20T17:48:45.224Z,8.50
2019-02-20T17:51:15.702Z,8.40
2019-02-20T17:53:46.272Z,8.30
2019-02-20T17:56:16.357Z,8.30
2019-02-20T17:58:46.486Z,8.20
2019-02-20T18:01:18.006Z,8.20
2019-02-20T18:03:48.053Z,8.20
2019-02-20T18:06:18.140Z,8.20
2019-02-20T18:08:48.368Z,8.20
2019-02-20T18:11:18.386Z,8.20
2019-02-20T18:13:48.480Z,8.20
2019-02-20T18:16:18.641Z,8.20
2019-02-20T18:18:48.829Z,8.20
2019-02-20T18:21:19.063Z,8.20
2019-02-20T18:23:49.272Z,8.20
2019-02-20T18:26:19.435Z,8.10
2019-02-20T18:28:49.652Z,8.10
2019-02-20T18:31:19.879Z,8.00
2019-02-20T18:33:50.198Z,8.00
2019-02-20T18:36:20.315Z,7.90
2019-02-20T18:38:50.478Z,7.90
2019-02-20T18:41:20.638Z,7.80
2019-02-20T18:43:50.926Z,7.80
2019-02-20T18:46:21.061Z,7.70
2019-02-20T18:48:51.237Z,7.70
2019-02-20T18:51:21.505Z,7.70
2019-02-20T18:53:51.660Z,7.60
2019-02-20T18:56:22.007Z,7.60
2019-02-20T18:58:52.149Z,7.60
2019-02-20T19:01:22.233Z,7.60
2019-02-20T19:03:52.416Z,7.50
2019-02-20T19:06:22.598Z,7.50
2019-02-20T19:09:09.479Z,7.50
2019-02-20T19:12:22.713Z,7.50
2019-02-20T19:15:13.536Z,7.50
2019-02-20T19:18:25.506Z,7.40
2019-02-20T19:21:33.029Z,7.40
2019-02-20T19:24:43.790Z,7.30
2019-02-20T19:27:20.820Z,7.30
2019-02-20T19:30:22.218Z,7.20
2019-02-20T19:33:24.396Z,7.20
2019-02-20T19:36:26.512Z,7.10
2019-02-20T19:39:19.372Z,7.10
2019-02-20T19:42:26.232Z,7.00
2019-02-20T19:46:01.546Z,7.00
2019-02-20T19:48:57.236Z,6.90
2019-02-20T19:52:00.351Z,6.90
2019-02-20T19:54:45.178Z,6.90
2019-02-20T19:57:51.057Z,6.80
2019-02-20T20:01:06.280Z,6.80
2019-02-20T20:03:49.504Z,6.80
2019-02-20T20:06:48.993Z,6.90
2019-02-20T20:09:55.866Z,7.00
2019-02-20T20:13:08.051Z,7.30
2019-02-20T20:16:00.435Z,7.50
2019-02-20T20:19:09.555Z,7.70
2019-02-20T20:22:27.400Z,8.00
2019-02-20T20:25:34.579Z,8.10
2019-02-20T20:28:36.225Z,8.20
2019-02-20T20:31:56.275Z,8.20
2019-02-20T20:35:09.067Z,8.30
2019-02-20T20:38:12.893Z,8.30
2019-02-20T20:41:45.308Z,8.30
2019-02-20T20:45:14.707Z,8.30
2019-02-20T20:48:14.150Z,8.30
2019-02-20T20:51:24.657Z,8.30
2019-02-20T20:54:33.924Z,8.30
2019-02-20T20:57:23.132Z,8.40
2019-02-20T21:00:37.130Z,8.40
2019-02-20T21:03:10.608Z,8.50
2019-02-20T21:06:36.714Z,8.40
2019-02-20T21:09:29.773Z,8.40
2019-02-20T21:12:34.774Z,8.50
2019-02-20T21:15:36.174Z,8.50
2019-02-20T21:19:03.688Z,8.60
2019-02-20T21:22:41.931Z,8.60
2019-02-20T21:26:08.419Z,8.60
2019-02-20T21:29:28.832Z,8.60
2019-02-20T21:32:31.476Z,8.60
2019-02-20T21:35:26.424Z,8.70
2019-02-20T21:38:29.681Z,8.70
2019-02-20T21:41:12.700Z,8.70
2019-02-20T21:43:59.416Z,8.70
2019-02-20T21:47:29.060Z,8.70
2019-02-20T21:50:38.010Z,8.70
2019-02-20T21:53:36.952Z,8.70
2019-02-20T21:56:25.144Z,8.70
2019-02-20T21:59:18.780Z,8.70
2019-02-20T22:02:32.197Z,8.70
2019-02-20T22:05:40.615Z,8.70
2019-02-20T22:08:50.455Z,8.70
2019-02-20T22:12:17.069Z,8.70
2019-02-20T22:15:27.665Z,8.70
2019-02-20T22:18:28.412Z,8.60
2019-02-20T22:21:48.742Z,8.60
2019-02-20T22:24:44.213Z,8.60
2019-02-20T22:27:42.711Z,8.60
2019-02-20T22:30:59.025Z,8.40
2019-02-20T22:33:37.753Z,8.20
2019-02-20T22:36:45.089Z,7.90
2019-02-20T22:39:46.183Z,7.80
2019-02-20T22:42:44.928Z,7.60
2019-02-20T22:45:45.927Z,7.50
2019-02-20T22:48:55.539Z,7.40
2019-02-20T22:52:03.668Z,7.20
2019-02-20T22:55:16.401Z,7.00
2019-02-20T22:58:13.666Z,6.90
2019-02-20T23:01:29.801Z,6.70
2019-02-20T23:04:08.895Z,6.70
2019-02-20T23:07:08.613Z,6.60
2019-02-20T23:10:21.462Z,6.60
2019-02-20T23:13:32.105Z,6.50
2019-02-20T23:16:02.181Z,6.50
2019-02-20T23:18:32.231Z,6.40
2019-02-20T23:21:02.349Z,6.30
2019-02-20T23:23:32.397Z,6.30
2019-02-20T23:26:02.521Z,6.30
2019-02-20T23:28:32.634Z,6.30
2019-02-20T23:31:03.929Z,6.30
2019-02-20T23:33:34.165Z,6.30
2019-02-20T23:36:04.235Z,6.30
2019-02-20T23:38:34.370Z,6.30
2019-02-20T23:41:04.519Z,6.30
2019-02-20T23:43:34.644Z,6.30
2019-02-20T23:46:04.655Z,6.20
2019-02-20T23:48:34.668Z,6.20
2019-02-20T23:51:04.710Z,6.20
2019-02-20T23:53:34.730Z,6.20
2019-02-20T23:56:04.856Z,6.20
2019-02-20T23:58:34.948Z,6.20
